sensor_id;sensor_type;location;lat;lon;timestamp;temperature;humidity
64855;DHT22;51321;50.428;8.378;2023-05-10T00:00:13;14.50;99.90
64855;DHT22;51321;50.428;8.378;2023-05-10T00:02:55;14.30;99.90
64855;DHT22;51321;50.428;8.378;2023-05-10T00:05:35;14.30;99.90
64855;DHT22;51321;50.428;8.378;2023-05-10T00:08:18;14.20;99.90
64855;DHT22;51321;50.428;8.378;2023-05-10T00:11:00;14.10;99.90
64855;DHT22;51321;50.428;8.378;2023-05-10T00:13:41;14.10;99.90
64855;DHT22;51321;50.428;8.378;2023-05-10T00:16:22;14.20;99.90
64855;DHT22;51321;50.428;8.378;2023-05-10T00:19:03;14.20;99.90
64855;DHT22;51321;50.428;8.378;2023-05-10T00:21:44;14.20;99.90
64855;DHT22;51321;50.428;8.378;2023-05-10T00:24:25;14.20;99.90
64855;DHT22;51321;50.428;8.378;2023-05-10T00:27:08;14.20;99.90
64855;DHT22;51321;50.428;8.378;2023-05-10T00:29:49;14.20;99.90
64855;DHT22;51321;50.428;8.378;2023-05-10T00:32:31;14.10;99.90
64855;DHT22;51321;50.428;8.378;2023-05-10T00:35:12;14.20;99.90
64855;DHT22;51321;50.428;8.378;2023-05-10T00:37:52;14.20;99.90
64855;DHT22;51321;50.428;8.378;2023-05-10T00:40:35;14.00;99.90
64855;DHT22;51321;50.428;8.378;2023-05-10T00:43:20;14.10;99.90
64855;DHT22;51321;50.428;8.378;2023-05-10T00:46:04;14.00;99.90
64855;DHT22;51321;50.428;8.378;2023-05-10T00:48:45;14.00;99.90
64855;DHT22;51321;50.428;8.378;2023-05-10T00:51:27;14.00;99.90
64855;DHT22;51321;50.428;8.378;2023-05-10T00:54:08;13.90;99.90
64855;DHT22;51321;50.428;8.378;2023-05-10T00:56:49;13.90;99.90
64855;DHT22;51321;50.428;8.378;2023-05-10T00:59:34;14.00;99.90
64855;DHT22;51321;50.428;8.378;2023-05-10T01:02:15;14.00;99.90
64855;DHT22;51321;50.428;8.378;2023-05-10T01:04:57;13.90;99.90
64855;DHT22;51321;50.428;8.378;2023-05-10T01:07:37;13.90;99.90
64855;DHT22;51321;50.428;8.378;2023-05-10T01:10:18;13.90;99.90
64855;DHT22;51321;50.428;8.378;2023-05-10T01:13:00;13.90;99.90
64855;DHT22;51321;50.428;8.378;2023-05-10T01:15:44;13.90;99.90
64855;DHT22;51321;50.428;8.378;2023-05-10T01:18:26;13.80;99.90
64855;DHT22;51321;50.428;8.378;2023-05-10T01:21:17;13.80;99.90
64855;DHT22;51321;50.428;8.378;2023-05-10T01:27:52;13.80;99.90
64855;DHT22;51321;50.428;8.378;2023-05-10T01:30:55;13.90;99.90
64855;DHT22;51321;50.428;8.378;2023-05-10T01:33:48;13.80;99.90
64855;DHT22;51321;50.428;8.378;2023-05-10T01:36:35;13.70;99.90
64855;DHT22;51321;50.428;8.378;2023-05-10T01:39:25;13.70;99.90
64855;DHT22;51321;50.428;8.378;2023-05-10T01:42:10;13.70;99.90
64855;DHT22;51321;50.428;8.378;2023-05-10T01:44:58;13.80;99.90
64855;DHT22;51321;50.428;8.378;2023-05-10T01:47:43;14.00;99.90
64855;DHT22;51321;50.428;8.378;2023-05-10T01:50:30;13.90;99.90
64855;DHT22;51321;50.428;8.378;2023-05-10T01:53:14;13.90;99.90
64855;DHT22;51321;50.428;8.378;2023-05-10T01:56:00;13.80;99.90
64855;DHT22;51321;50.428;8.378;2023-05-10T01:58:45;13.80;99.90
64855;DHT22;51321;50.428;8.378;2023-05-10T02:01:29;13.80;99.90
64855;DHT22;51321;50.428;8.378;2023-05-10T02:04:11;13.80;99.90
64855;DHT22;51321;50.428;8.378;2023-05-10T02:06:57;13.80;99.90
64855;DHT22;51321;50.428;8.378;2023-05-10T02:09:44;13.80;99.90
64855;DHT22;51321;50.428;8.378;2023-05-10T02:12:29;13.70;99.90
64855;DHT22;51321;50.428;8.378;2023-05-10T02:15:12;13.80;99.90
64855;DHT22;51321;50.428;8.378;2023-05-10T02:17:55;13.70;99.90
64855;DHT22;51321;50.428;8.378;2023-05-10T02:20:37;13.70;99.90
64855;DHT22;51321;50.428;8.378;2023-05-10T02:23:20;13.70;99.90
64855;DHT22;51321;50.428;8.378;2023-05-10T02:26:02;13.70;99.90
64855;DHT22;51321;50.428;8.378;2023-05-10T02:28:46;13.70;99.90
64855;DHT22;51321;50.428;8.378;2023-05-10T02:31:28;13.60;99.90
64855;DHT22;51321;50.428;8.378;2023-05-10T02:34:11;13.60;99.90
64855;DHT22;51321;50.428;8.378;2023-05-10T02:36:53;13.70;99.90
64855;DHT22;51321;50.428;8.378;2023-05-10T02:39:36;13.70;99.90
64855;DHT22;51321;50.428;8.378;2023-05-10T02:42:25;13.60;99.90
64855;DHT22;51321;50.428;8.378;2023-05-10T02:45:10;13.60;99.90
64855;DHT22;51321;50.428;8.378;2023-05-10T02:47:52;13.60;99.90
64855;DHT22;51321;50.428;8.378;2023-05-10T02:50:34;13.50;99.90
64855;DHT22;51321;50.428;8.378;2023-05-10T02:53:21;13.50;99.90
64855;DHT22;51321;50.428;8.378;2023-05-10T02:56:24;13.40;99.90
64855;DHT22;51321;50.428;8.378;2023-05-10T02:59:06;13.40;99.90
64855;DHT22;51321;50.428;8.378;2023-05-10T03:01:48;13.30;99.90
64855;DHT22;51321;50.428;8.378;2023-05-10T03:04:31;13.30;99.90
64855;DHT22;51321;50.428;8.378;2023-05-10T03:07:12;13.20;99.90
64855;DHT22;51321;50.428;8.378;2023-05-10T03:09:54;13.30;99.90
64855;DHT22;51321;50.428;8.378;2023-05-10T03:12:56;13.30;99.90
64855;DHT22;51321;50.428;8.378;2023-05-10T03:15:44;13.20;99.90
64855;DHT22;51321;50.428;8.378;2023-05-10T03:18:31;13.20;99.90
64855;DHT22;51321;50.428;8.378;2023-05-10T03:21:17;13.20;99.90
64855;DHT22;51321;50.428;8.378;2023-05-10T03:24:06;13.20;99.90
64855;DHT22;51321;50.428;8.378;2023-05-10T03:26:50;13.20;99.90
64855;DHT22;51321;50.428;8.378;2023-05-10T03:29:33;13.30;99.90
64855;DHT22;51321;50.428;8.378;2023-05-10T03:32:15;13.30;99.90
64855;DHT22;51321;50.428;8.378;2023-05-10T03:34:57;13.30;99.90
64855;DHT22;51321;50.428;8.378;2023-05-10T03:37:39;13.30;99.90
64855;DHT22;51321;50.428;8.378;2023-05-10T03:40:20;13.30;99.90
64855;DHT22;51321;50.428;8.378;2023-05-10T03:43:02;13.20;99.90
64855;DHT22;51321;50.428;8.378;2023-05-10T03:45:45;13.30;99.90
64855;DHT22;51321;50.428;8.378;2023-05-10T03:48:26;13.40;99.90
64855;DHT22;51321;50.428;8.378;2023-05-10T03:51:06;13.50;99.90
64855;DHT22;51321;50.428;8.378;2023-05-10T03:53:47;13.30;99.90
64855;DHT22;51321;50.428;8.378;2023-05-10T03:56:28;13.30;99.90
64855;DHT22;51321;50.428;8.378;2023-05-10T03:59:10;13.30;99.90
64855;DHT22;51321;50.428;8.378;2023-05-10T04:01:52;13.30;99.90
64855;DHT22;51321;50.428;8.378;2023-05-10T04:04:33;13.30;99.90
64855;DHT22;51321;50.428;8.378;2023-05-10T04:07:15;13.40;99.90
64855;DHT22;51321;50.428;8.378;2023-05-10T04:09:56;13.40;99.90
64855;DHT22;51321;50.428;8.378;2023-05-10T04:12:37;13.40;99.90
64855;DHT22;51321;50.428;8.378;2023-05-10T04:15:19;13.40;99.90
64855;DHT22;51321;50.428;8.378;2023-05-10T04:18:01;13.30;99.90
64855;DHT22;51321;50.428;8.378;2023-05-10T04:20:44;13.30;99.90
64855;DHT22;51321;50.428;8.378;2023-05-10T04:23:25;13.40;99.90
64855;DHT22;51321;50.428;8.378;2023-05-10T04:26:07;13.40;99.90
64855;DHT22;51321;50.428;8.378;2023-05-10T04:28:48;13.40;99.90
64855;DHT22;51321;50.428;8.378;2023-05-10T04:31:28;13.40;99.90
64855;DHT22;51321;50.428;8.378;2023-05-10T04:34:11;13.50;99.90
64855;DHT22;51321;50.428;8.378;2023-05-10T04:36:52;13.40;99.90
64855;DHT22;51321;50.428;8.378;2023-05-10T04:39:34;13.40;99.90
64855;DHT22;51321;50.428;8.378;2023-05-10T04:42:15;13.30;99.90
64855;DHT22;51321;50.428;8.378;2023-05-10T04:44:56;13.40;99.90
64855;DHT22;51321;50.428;8.378;2023-05-10T04:47:37;13.40;99.90
64855;DHT22;51321;50.428;8.378;2023-05-10T04:50:19;13.30;99.90
64855;DHT22;51321;50.428;8.378;2023-05-10T04:53:00;13.40;99.90
64855;DHT22;51321;50.428;8.378;2023-05-10T04:55:42;13.40;99.90
64855;DHT22;51321;50.428;8.378;2023-05-10T04:58:22;13.50;99.90
64855;DHT22;51321;50.428;8.378;2023-05-10T05:01:06;13.40;99.90
64855;DHT22;51321;50.428;8.378;2023-05-10T05:03:47;13.50;99.90
64855;DHT22;51321;50.428;8.378;2023-05-10T05:06:30;13.50;99.90
64855;DHT22;51321;50.428;8.378;2023-05-10T05:09:11;13.50;99.90
64855;DHT22;51321;50.428;8.378;2023-05-10T05:11:51;13.50;99.90
64855;DHT22;51321;50.428;8.378;2023-05-10T05:14:33;13.60;99.90
64855;DHT22;51321;50.428;8.378;2023-05-10T05:17:14;13.60;99.90
64855;DHT22;51321;50.428;8.378;2023-05-10T05:19:55;13.70;99.90
64855;DHT22;51321;50.428;8.378;2023-05-10T05:22:37;13.70;99.90
64855;DHT22;51321;50.428;8.378;2023-05-10T05:25:18;13.80;99.90
64855;DHT22;51321;50.428;8.378;2023-05-10T05:27:59;13.70;99.90
64855;DHT22;51321;50.428;8.378;2023-05-10T05:30:41;13.80;99.90
64855;DHT22;51321;50.428;8.378;2023-05-10T05:33:22;13.80;99.90
64855;DHT22;51321;50.428;8.378;2023-05-10T05:36:04;13.80;99.90
64855;DHT22;51321;50.428;8.378;2023-05-10T05:38:46;13.80;99.90
64855;DHT22;51321;50.428;8.378;2023-05-10T05:41:27;13.80;99.90
64855;DHT22;51321;50.428;8.378;2023-05-10T05:44:09;14.00;99.90
64855;DHT22;51321;50.428;8.378;2023-05-10T05:46:51;14.30;99.90
64855;DHT22;51321;50.428;8.378;2023-05-10T05:49:32;14.10;99.90
64855;DHT22;51321;50.428;8.378;2023-05-10T05:52:14;14.00;99.90
64855;DHT22;51321;50.428;8.378;2023-05-10T05:54:56;14.00;99.90
64855;DHT22;51321;50.428;8.378;2023-05-10T05:57:37;13.90;99.90
64855;DHT22;51321;50.428;8.378;2023-05-10T06:00:18;13.90;99.90
64855;DHT22;51321;50.428;8.378;2023-05-10T06:03:00;14.00;99.90
64855;DHT22;51321;50.428;8.378;2023-05-10T06:05:43;14.20;99.90
64855;DHT22;51321;50.428;8.378;2023-05-10T06:08:24;14.40;99.90
64855;DHT22;51321;50.428;8.378;2023-05-10T06:11:07;14.50;99.90
64855;DHT22;51321;50.428;8.378;2023-05-10T06:13:48;14.40;99.90
64855;DHT22;51321;50.428;8.378;2023-05-10T06:16:29;14.40;99.90
64855;DHT22;51321;50.428;8.378;2023-05-10T06:19:10;14.50;99.90
64855;DHT22;51321;50.428;8.378;2023-05-10T06:21:51;14.60;99.90
64855;DHT22;51321;50.428;8.378;2023-05-10T06:24:32;14.60;99.90
64855;DHT22;51321;50.428;8.378;2023-05-10T06:27:14;14.60;99.90
64855;DHT22;51321;50.428;8.378;2023-05-10T06:29:55;14.60;99.90
64855;DHT22;51321;50.428;8.378;2023-05-10T06:32:38;14.60;99.90
64855;DHT22;51321;50.428;8.378;2023-05-10T06:35:19;14.60;99.90
64855;DHT22;51321;50.428;8.378;2023-05-10T06:38:00;14.70;99.90
64855;DHT22;51321;50.428;8.378;2023-05-10T06:40:42;14.80;99.90
64855;DHT22;51321;50.428;8.378;2023-05-10T06:43:25;14.70;99.90
64855;DHT22;51321;50.428;8.378;2023-05-10T06:46:08;14.80;99.90
64855;DHT22;51321;50.428;8.378;2023-05-10T06:48:49;14.90;99.90
64855;DHT22;51321;50.428;8.378;2023-05-10T06:51:30;15.00;99.90
64855;DHT22;51321;50.428;8.378;2023-05-10T06:54:13;15.10;99.90
64855;DHT22;51321;50.428;8.378;2023-05-10T06:56:54;15.20;99.90
64855;DHT22;51321;50.428;8.378;2023-05-10T06:59:37;15.40;99.90
64855;DHT22;51321;50.428;8.378;2023-05-10T07:02:18;15.30;99.90
64855;DHT22;51321;50.428;8.378;2023-05-10T07:05:00;15.30;99.90
64855;DHT22;51321;50.428;8.378;2023-05-10T07:07:42;15.30;99.90
64855;DHT22;51321;50.428;8.378;2023-05-10T07:10:22;15.30;99.90
64855;DHT22;51321;50.428;8.378;2023-05-10T07:13:03;15.40;99.90
64855;DHT22;51321;50.428;8.378;2023-05-10T07:15:46;15.20;99.90
64855;DHT22;51321;50.428;8.378;2023-05-10T07:18:27;15.10;99.90
64855;DHT22;51321;50.428;8.378;2023-05-10T07:21:09;15.00;99.90
64855;DHT22;51321;50.428;8.378;2023-05-10T07:23:50;14.90;99.90
64855;DHT22;51321;50.428;8.378;2023-05-10T07:26:31;15.00;99.90
64855;DHT22;51321;50.428;8.378;2023-05-10T07:29:12;14.90;99.90
64855;DHT22;51321;50.428;8.378;2023-05-10T07:31:54;14.90;99.90
64855;DHT22;51321;50.428;8.378;2023-05-10T07:34:36;15.00;99.90
64855;DHT22;51321;50.428;8.378;2023-05-10T07:37:19;15.10;99.90
64855;DHT22;51321;50.428;8.378;2023-05-10T07:40:00;15.10;99.90
64855;DHT22;51321;50.428;8.378;2023-05-10T07:42:41;15.10;99.90
64855;DHT22;51321;50.428;8.378;2023-05-10T07:45:22;15.20;99.90
64855;DHT22;51321;50.428;8.378;2023-05-10T07:48:05;15.20;99.90
64855;DHT22;51321;50.428;8.378;2023-05-10T07:50:46;15.20;99.90
64855;DHT22;51321;50.428;8.378;2023-05-10T07:53:27;15.30;99.90
64855;DHT22;51321;50.428;8.378;2023-05-10T07:56:22;15.30;99.90
64855;DHT22;51321;50.428;8.378;2023-05-10T07:59:04;15.40;99.90
64855;DHT22;51321;50.428;8.378;2023-05-10T08:01:46;15.50;99.90
64855;DHT22;51321;50.428;8.378;2023-05-10T08:04:28;15.70;99.90
64855;DHT22;51321;50.428;8.378;2023-05-10T08:07:09;15.70;99.90
64855;DHT22;51321;50.428;8.378;2023-05-10T08:09:50;15.80;99.90
64855;DHT22;51321;50.428;8.378;2023-05-10T08:12:32;16.00;99.90
64855;DHT22;51321;50.428;8.378;2023-05-10T08:15:13;15.90;99.90
64855;DHT22;51321;50.428;8.378;2023-05-10T08:17:53;15.80;99.90
64855;DHT22;51321;50.428;8.378;2023-05-10T08:20:36;15.60;99.90
64855;DHT22;51321;50.428;8.378;2023-05-10T08:23:17;15.50;99.90
64855;DHT22;51321;50.428;8.378;2023-05-10T08:25:59;15.40;99.90
64855;DHT22;51321;50.428;8.378;2023-05-10T08:28:41;15.20;99.90
64855;DHT22;51321;50.428;8.378;2023-05-10T08:31:22;15.20;99.90
64855;DHT22;51321;50.428;8.378;2023-05-10T08:34:03;15.30;99.90
64855;DHT22;51321;50.428;8.378;2023-05-10T08:36:46;15.50;99.90
64855;DHT22;51321;50.428;8.378;2023-05-10T08:39:28;15.60;99.90
64855;DHT22;51321;50.428;8.378;2023-05-10T08:42:10;15.60;99.90
64855;DHT22;51321;50.428;8.378;2023-05-10T08:44:53;15.60;99.90
64855;DHT22;51321;50.428;8.378;2023-05-10T08:47:36;15.70;99.90
64855;DHT22;51321;50.428;8.378;2023-05-10T08:50:21;15.70;99.90
64855;DHT22;51321;50.428;8.378;2023-05-10T08:53:07;15.60;99.90
64855;DHT22;51321;50.428;8.378;2023-05-10T08:55:50;15.60;99.90
64855;DHT22;51321;50.428;8.378;2023-05-10T08:58:31;15.70;99.90
64855;DHT22;51321;50.428;8.378;2023-05-10T09:01:13;15.90;99.90
64855;DHT22;51321;50.428;8.378;2023-05-10T09:03:56;16.40;99.90
64855;DHT22;51321;50.428;8.378;2023-05-10T09:06:38;16.70;99.90
64855;DHT22;51321;50.428;8.378;2023-05-10T09:09:21;17.10;99.90
64855;DHT22;51321;50.428;8.378;2023-05-10T09:12:02;17.00;99.90
64855;DHT22;51321;50.428;8.378;2023-05-10T09:14:44;16.80;99.90
64855;DHT22;51321;50.428;8.378;2023-05-10T09:17:26;16.80;99.90
64855;DHT22;51321;50.428;8.378;2023-05-10T09:20:09;16.80;99.90
64855;DHT22;51321;50.428;8.378;2023-05-10T09:22:51;16.80;99.90
64855;DHT22;51321;50.428;8.378;2023-05-10T09:25:34;17.00;99.90
64855;DHT22;51321;50.428;8.378;2023-05-10T09:28:15;17.10;99.90
64855;DHT22;51321;50.428;8.378;2023-05-10T09:30:57;17.30;99.90
64855;DHT22;51321;50.428;8.378;2023-05-10T09:33:44;17.70;99.90
64855;DHT22;51321;50.428;8.378;2023-05-10T09:36:25;17.90;99.90
64855;DHT22;51321;50.428;8.378;2023-05-10T09:39:08;17.90;99.90
64855;DHT22;51321;50.428;8.378;2023-05-10T09:41:50;17.90;99.90
64855;DHT22;51321;50.428;8.378;2023-05-10T09:44:33;17.90;99.90
64855;DHT22;51321;50.428;8.378;2023-05-10T09:47:17;17.80;99.90
64855;DHT22;51321;50.428;8.378;2023-05-10T09:50:00;17.80;99.90
64855;DHT22;51321;50.428;8.378;2023-05-10T09:52:49;18.10;99.90
64855;DHT22;51321;50.428;8.378;2023-05-10T09:55:40;18.20;99.90
64855;DHT22;51321;50.428;8.378;2023-05-10T09:58:25;18.20;99.90
64855;DHT22;51321;50.428;8.378;2023-05-10T10:01:11;18.10;99.90
64855;DHT22;51321;50.428;8.378;2023-05-10T10:03:53;18.00;99.90
64855;DHT22;51321;50.428;8.378;2023-05-10T10:06:37;17.80;99.90
64855;DHT22;51321;50.428;8.378;2023-05-10T10:09:19;17.70;99.90
64855;DHT22;51321;50.428;8.378;2023-05-10T10:12:01;17.60;99.90
64855;DHT22;51321;50.428;8.378;2023-05-10T10:14:45;17.60;99.90
64855;DHT22;51321;50.428;8.378;2023-05-10T10:17:27;17.40;99.90
64855;DHT22;51321;50.428;8.378;2023-05-10T10:20:09;17.30;99.90
64855;DHT22;51321;50.428;8.378;2023-05-10T10:22:54;17.10;99.90
64855;DHT22;51321;50.428;8.378;2023-05-10T10:25:35;17.10;99.90
64855;DHT22;51321;50.428;8.378;2023-05-10T10:28:23;16.90;99.90
64855;DHT22;51321;50.428;8.378;2023-05-10T10:31:23;16.90;99.90
64855;DHT22;51321;50.428;8.378;2023-05-10T10:34:06;17.10;99.90
64855;DHT22;51321;50.428;8.378;2023-05-10T10:36:47;17.20;99.90
64855;DHT22;51321;50.428;8.378;2023-05-10T10:39:30;17.30;99.90
64855;DHT22;51321;50.428;8.378;2023-05-10T10:42:12;17.40;99.90
64855;DHT22;51321;50.428;8.378;2023-05-10T10:45:11;17.50;99.90
64855;DHT22;51321;50.428;8.378;2023-05-10T10:48:21;17.60;99.90
64855;DHT22;51321;50.428;8.378;2023-05-10T10:51:03;17.60;99.90
64855;DHT22;51321;50.428;8.378;2023-05-10T10:53:44;17.40;99.90
64855;DHT22;51321;50.428;8.378;2023-05-10T10:56:28;17.60;99.90
64855;DHT22;51321;50.428;8.378;2023-05-10T10:59:09;17.70;99.90
64855;DHT22;51321;50.428;8.378;2023-05-10T11:01:52;17.90;99.90
64855;DHT22;51321;50.428;8.378;2023-05-10T11:04:38;18.20;99.90
64855;DHT22;51321;50.428;8.378;2023-05-10T11:07:22;18.40;99.90
64855;DHT22;51321;50.428;8.378;2023-05-10T11:10:04;18.40;99.90
64855;DHT22;51321;50.428;8.378;2023-05-10T11:12:53;18.40;99.90
64855;DHT22;51321;50.428;8.378;2023-05-10T11:15:36;17.60;99.90
64855;DHT22;51321;50.428;8.378;2023-05-10T11:18:19;17.20;99.90
64855;DHT22;51321;50.428;8.378;2023-05-10T11:21:02;16.90;99.90
64855;DHT22;51321;50.428;8.378;2023-05-10T11:23:52;16.70;99.90
64855;DHT22;51321;50.428;8.378;2023-05-10T11:26:35;16.50;99.90
64855;DHT22;51321;50.428;8.378;2023-05-10T11:29:16;16.30;99.90
64855;DHT22;51321;50.428;8.378;2023-05-10T11:31:58;16.20;99.90
64855;DHT22;51321;50.428;8.378;2023-05-10T11:34:39;16.10;99.90
64855;DHT22;51321;50.428;8.378;2023-05-10T11:37:22;16.10;99.90
64855;DHT22;51321;50.428;8.378;2023-05-10T11:40:03;16.00;99.90
64855;DHT22;51321;50.428;8.378;2023-05-10T11:42:45;16.10;99.90
64855;DHT22;51321;50.428;8.378;2023-05-10T11:45:27;16.10;99.90
64855;DHT22;51321;50.428;8.378;2023-05-10T11:48:08;16.10;99.90
64855;DHT22;51321;50.428;8.378;2023-05-10T11:50:49;16.30;99.90
64855;DHT22;51321;50.428;8.378;2023-05-10T11:53:38;16.70;99.90
64855;DHT22;51321;50.428;8.378;2023-05-10T11:56:19;17.10;99.90
64855;DHT22;51321;50.428;8.378;2023-05-10T11:59:01;17.60;99.90
64855;DHT22;51321;50.428;8.378;2023-05-10T12:01:43;17.90;99.90
64855;DHT22;51321;50.428;8.378;2023-05-10T12:04:26;18.10;99.90
64855;DHT22;51321;50.428;8.378;2023-05-10T12:07:08;18.30;99.90
64855;DHT22;51321;50.428;8.378;2023-05-10T12:10:25;18.50;99.90
64855;DHT22;51321;50.428;8.378;2023-05-10T12:13:12;18.60;99.90
64855;DHT22;51321;50.428;8.378;2023-05-10T12:15:57;18.60;99.90
64855;DHT22;51321;50.428;8.378;2023-05-10T12:18:41;18.60;99.90
64855;DHT22;51321;50.428;8.378;2023-05-10T12:21:23;18.50;99.90
64855;DHT22;51321;50.428;8.378;2023-05-10T12:24:06;18.50;99.90
64855;DHT22;51321;50.428;8.378;2023-05-10T12:26:50;18.60;99.90
64855;DHT22;51321;50.428;8.378;2023-05-10T12:29:32;19.20;99.90
64855;DHT22;51321;50.428;8.378;2023-05-10T12:32:14;19.70;99.90
64855;DHT22;51321;50.428;8.378;2023-05-10T12:34:57;19.80;99.90
64855;DHT22;51321;50.428;8.378;2023-05-10T12:37:42;19.80;99.90
64855;DHT22;51321;50.428;8.378;2023-05-10T12:40:28;19.50;99.90
64855;DHT22;51321;50.428;8.378;2023-05-10T12:43:11;19.40;99.90
64855;DHT22;51321;50.428;8.378;2023-05-10T12:45:52;19.70;99.90
64855;DHT22;51321;50.428;8.378;2023-05-10T12:48:36;19.70;99.90
64855;DHT22;51321;50.428;8.378;2023-05-10T12:51:17;19.20;99.90
64855;DHT22;51321;50.428;8.378;2023-05-10T12:54:02;19.10;99.90
64855;DHT22;51321;50.428;8.378;2023-05-10T12:56:44;18.80;99.90
64855;DHT22;51321;50.428;8.378;2023-05-10T12:59:29;18.60;99.90
64855;DHT22;51321;50.428;8.378;2023-05-10T13:02:10;18.70;99.90
64855;DHT22;51321;50.428;8.378;2023-05-10T13:04:50;18.70;99.90
64855;DHT22;51321;50.428;8.378;2023-05-10T13:07:33;18.60;99.90
64855;DHT22;51321;50.428;8.378;2023-05-10T13:10:19;18.40;99.90
64855;DHT22;51321;50.428;8.378;2023-05-10T13:13:02;18.00;99.90
64855;DHT22;51321;50.428;8.378;2023-05-10T13:15:44;17.90;99.90
64855;DHT22;51321;50.428;8.378;2023-05-10T13:18:25;18.00;99.90
64855;DHT22;51321;50.428;8.378;2023-05-10T13:21:07;17.90;99.90
64855;DHT22;51321;50.428;8.378;2023-05-10T13:23:47;17.90;99.90
64855;DHT22;51321;50.428;8.378;2023-05-10T13:26:28;17.90;99.90
64855;DHT22;51321;50.428;8.378;2023-05-10T13:29:09;18.10;99.90
64855;DHT22;51321;50.428;8.378;2023-05-10T13:31:51;18.10;99.90
64855;DHT22;51321;50.428;8.378;2023-05-10T13:34:32;18.40;99.90
64855;DHT22;51321;50.428;8.378;2023-05-10T13:37:15;18.80;99.90
64855;DHT22;51321;50.428;8.378;2023-05-10T13:39:55;19.00;99.90
64855;DHT22;51321;50.428;8.378;2023-05-10T13:42:36;19.30;99.90
64855;DHT22;51321;50.428;8.378;2023-05-10T13:45:17;19.60;99.90
64855;DHT22;51321;50.428;8.378;2023-05-10T13:48:02;19.60;99.90
64855;DHT22;51321;50.428;8.378;2023-05-10T13:50:43;19.70;99.90
64855;DHT22;51321;50.428;8.378;2023-05-10T13:53:24;19.70;99.90
64855;DHT22;51321;50.428;8.378;2023-05-10T13:56:05;19.70;99.90
64855;DHT22;51321;50.428;8.378;2023-05-10T13:58:46;19.40;99.90
64855;DHT22;51321;50.428;8.378;2023-05-10T14:01:27;19.10;99.90
64855;DHT22;51321;50.428;8.378;2023-05-10T14:04:11;18.70;99.90
64855;DHT22;51321;50.428;8.378;2023-05-10T14:06:51;18.60;99.90
64855;DHT22;51321;50.428;8.378;2023-05-10T14:09:33;18.50;99.90
64855;DHT22;51321;50.428;8.378;2023-05-10T14:12:15;18.40;99.90
64855;DHT22;51321;50.428;8.378;2023-05-10T14:14:56;18.40;99.90
64855;DHT22;51321;50.428;8.378;2023-05-10T14:17:37;18.30;99.90
64855;DHT22;51321;50.428;8.378;2023-05-10T14:20:24;18.20;99.90
64855;DHT22;51321;50.428;8.378;2023-05-10T14:23:05;18.00;99.90
64855;DHT22;51321;50.428;8.378;2023-05-10T14:25:47;18.10;99.90
64855;DHT22;51321;50.428;8.378;2023-05-10T14:28:28;18.30;99.90
64855;DHT22;51321;50.428;8.378;2023-05-10T14:31:09;18.20;99.90
64855;DHT22;51321;50.428;8.378;2023-05-10T14:33:50;18.10;99.90
64855;DHT22;51321;50.428;8.378;2023-05-10T14:36:33;18.20;99.90
64855;DHT22;51321;50.428;8.378;2023-05-10T14:39:14;18.00;99.90
64855;DHT22;51321;50.428;8.378;2023-05-10T14:41:55;18.00;99.90
64855;DHT22;51321;50.428;8.378;2023-05-10T14:44:36;18.00;99.90
64855;DHT22;51321;50.428;8.378;2023-05-10T14:47:17;18.20;99.90
64855;DHT22;51321;50.428;8.378;2023-05-10T14:49:58;18.30;99.90
64855;DHT22;51321;50.428;8.378;2023-05-10T14:52:40;18.40;99.90
64855;DHT22;51321;50.428;8.378;2023-05-10T14:55:21;18.60;99.90
64855;DHT22;51321;50.428;8.378;2023-05-10T14:58:02;18.60;99.90
64855;DHT22;51321;50.428;8.378;2023-05-10T15:00:43;18.60;99.90
64855;DHT22;51321;50.428;8.378;2023-05-10T15:03:26;18.80;99.90
64855;DHT22;51321;50.428;8.378;2023-05-10T15:06:08;19.00;99.90
64855;DHT22;51321;50.428;8.378;2023-05-10T15:08:51;19.20;99.90
64855;DHT22;51321;50.428;8.378;2023-05-10T15:11:32;19.40;99.90
64855;DHT22;51321;50.428;8.378;2023-05-10T15:14:13;19.40;99.90
64855;DHT22;51321;50.428;8.378;2023-05-10T15:16:55;19.20;99.90
64855;DHT22;51321;50.428;8.378;2023-05-10T15:19:36;19.20;99.90
64855;DHT22;51321;50.428;8.378;2023-05-10T15:22:17;19.10;99.90
64855;DHT22;51321;50.428;8.378;2023-05-10T15:24:59;19.10;99.90
64855;DHT22;51321;50.428;8.378;2023-05-10T15:27:41;18.80;99.90
64855;DHT22;51321;50.428;8.378;2023-05-10T15:30:22;18.60;99.90
64855;DHT22;51321;50.428;8.378;2023-05-10T15:33:03;18.60;99.90
64855;DHT22;51321;50.428;8.378;2023-05-10T15:35:45;18.50;99.90
64855;DHT22;51321;50.428;8.378;2023-05-10T15:38:26;18.50;99.90
64855;DHT22;51321;50.428;8.378;2023-05-10T15:41:08;18.50;99.90
64855;DHT22;51321;50.428;8.378;2023-05-10T15:43:49;18.40;99.90
64855;DHT22;51321;50.428;8.378;2023-05-10T15:46:30;18.40;99.90
64855;DHT22;51321;50.428;8.378;2023-05-10T15:49:11;18.50;99.90
64855;DHT22;51321;50.428;8.378;2023-05-10T15:51:52;18.50;99.90
64855;DHT22;51321;50.428;8.378;2023-05-10T15:54:33;18.30;99.90
64855;DHT22;51321;50.428;8.378;2023-05-10T15:57:15;18.30;99.90
64855;DHT22;51321;50.428;8.378;2023-05-10T15:59:56;18.10;99.90
64855;DHT22;51321;50.428;8.378;2023-05-10T16:02:37;18.00;99.90
64855;DHT22;51321;50.428;8.378;2023-05-10T16:05:18;17.90;99.90
64855;DHT22;51321;50.428;8.378;2023-05-10T16:08:00;18.00;99.90
64855;DHT22;51321;50.428;8.378;2023-05-10T16:10:42;18.00;99.90
64855;DHT22;51321;50.428;8.378;2023-05-10T16:13:24;18.00;99.90
64855;DHT22;51321;50.428;8.378;2023-05-10T16:16:05;18.10;99.90
64855;DHT22;51321;50.428;8.378;2023-05-10T16:18:46;18.10;99.90
64855;DHT22;51321;50.428;8.378;2023-05-10T16:21:29;18.20;99.90
64855;DHT22;51321;50.428;8.378;2023-05-10T16:24:11;18.10;99.90
64855;DHT22;51321;50.428;8.378;2023-05-10T16:26:53;18.10;99.90
64855;DHT22;51321;50.428;8.378;2023-05-10T16:29:35;17.90;99.90
64855;DHT22;51321;50.428;8.378;2023-05-10T16:32:16;17.70;99.90
64855;DHT22;51321;50.428;8.378;2023-05-10T16:34:58;17.80;99.90
64855;DHT22;51321;50.428;8.378;2023-05-10T16:37:38;17.80;99.90
64855;DHT22;51321;50.428;8.378;2023-05-10T16:40:20;17.80;99.90
64855;DHT22;51321;50.428;8.378;2023-05-10T16:43:02;17.70;99.90
64855;DHT22;51321;50.428;8.378;2023-05-10T16:45:44;17.50;99.90
64855;DHT22;51321;50.428;8.378;2023-05-10T16:48:25;17.40;99.90
64855;DHT22;51321;50.428;8.378;2023-05-10T16:51:06;17.30;99.90
64855;DHT22;51321;50.428;8.378;2023-05-10T16:53:49;17.40;99.90
64855;DHT22;51321;50.428;8.378;2023-05-10T16:56:30;17.50;99.90
64855;DHT22;51321;50.428;8.378;2023-05-10T16:59:11;17.50;99.90
64855;DHT22;51321;50.428;8.378;2023-05-10T17:01:53;17.40;99.90
64855;DHT22;51321;50.428;8.378;2023-05-10T17:04:34;17.40;99.90
64855;DHT22;51321;50.428;8.378;2023-05-10T17:07:17;17.40;99.90
64855;DHT22;51321;50.428;8.378;2023-05-10T17:10:00;17.30;99.90